sensor_id;sensor_type;location;lat;lon;timestamp;pressure;altitude;pressure_sealevel;temperature;humidity
39769;BME280;38939;47.824;14.642;2023-02-23T00:00:09;96509.03;;;5.97;75.18
39769;BME280;38939;47.824;14.642;2023-02-23T00:01:29;96511.00;;;5.80;76.80
39769;BME280;38939;47.824;14.642;2023-02-23T00:02:31;96507.69;;;5.71;77.17
39769;BME280;38939;47.824;14.642;2023-02-23T00:03:32;96512.25;;;5.69;77.02
39769;BME280;38939;47.824;14.642;2023-02-23T00:04:34;96509.66;;;5.69;76.35
39769;BME280;38939;47.824;14.642;2023-02-23T00:05:37;96506.72;;;5.72;75.76
39769;BME280;38939;47.824;14.642;2023-02-23T00:06:38;96510.75;;;5.75;76.04
39769;BME280;38939;47.824;14.642;2023-02-23T00:07:41;96511.19;;;5.78;74.84
39769;BME280;38939;47.824;14.642;2023-02-23T00:08:44;96512.44;;;5.82;75.06
39769;BME280;38939;47.824;14.642;2023-02-23T00:09:48;96514.03;;;5.84;74.86
39769;BME280;38939;47.824;14.642;2023-02-23T00:10:51;96514.63;;;5.86;74.82
39769;BME280;38939;47.824;14.642;2023-02-23T00:11:59;96510.47;;;5.85;74.68
39769;BME280;38939;47.824;14.642;2023-02-23T00:13:03;96504.50;;;5.84;75.20
39769;BME280;38939;47.824;14.642;2023-02-23T00:14:05;96506.34;;;5.75;75.40
39769;BME280;38939;47.824;14.642;2023-02-23T00:15:08;96503.44;;;5.64;76.24
39769;BME280;38939;47.824;14.642;2023-02-23T00:16:12;96514.94;;;5.61;76.58
39769;BME280;38939;47.824;14.642;2023-02-23T00:17:15;96520.13;;;5.61;76.22
39769;BME280;38939;47.824;14.642;2023-02-23T00:18:18;96506.22;;;5.62;76.44
39769;BME280;38939;47.824;14.642;2023-02-23T00:19:21;96507.19;;;5.61;76.44
39769;BME280;38939;47.824;14.642;2023-02-23T00:20:25;96511.00;;;5.65;76.41
39769;BME280;38939;47.824;14.642;2023-02-23T00:21:30;96514.16;;;5.60;76.92
39769;BME280;38939;47.824;14.642;2023-02-23T00:22:36;96498.97;;;5.57;77.82
39769;BME280;38939;47.824;14.642;2023-02-23T00:23:38;96510.88;;;5.52;77.64
39769;BME280;38939;47.824;14.642;2023-02-23T00:24:40;96512.00;;;5.49;77.47
39769;BME280;38939;47.824;14.642;2023-02-23T00:25:43;96509.25;;;5.51;77.51
39769;BME280;38939;47.824;14.642;2023-02-23T00:26:46;96508.91;;;5.54;77.44
39769;BME280;38939;47.824;14.642;2023-02-23T00:27:49;96511.28;;;5.55;76.78
39769;BME280;38939;47.824;14.642;2023-02-23T00:28:52;96514.31;;;5.59;76.73
39769;BME280;38939;47.824;14.642;2023-02-23T00:29:54;96512.97;;;5.63;76.44
39769;BME280;38939;47.824;14.642;2023-02-23T00:30:57;96518.34;;;5.61;76.67
39769;BME280;38939;47.824;14.642;2023-02-23T00:32:00;96511.72;;;5.59;76.58
39769;BME280;38939;47.824;14.642;2023-02-23T00:33:02;96516.28;;;5.57;76.33
39769;BME280;38939;47.824;14.642;2023-02-23T00:34:05;96522.09;;;5.59;76.32
39769;BME280;38939;47.824;14.642;2023-02-23T00:35:08;96511.56;;;5.60;76.17
39769;BME280;38939;47.824;14.642;2023-02-23T00:36:13;96510.38;;;5.63;75.80
39769;BME280;38939;47.824;14.642;2023-02-23T00:37:16;96517.19;;;5.64;76.30
39769;BME280;38939;47.824;14.642;2023-02-23T00:38:18;96520.13;;;5.61;76.25
39769;BME280;38939;47.824;14.642;2023-02-23T00:39:20;96516.28;;;5.57;76.80
39769;BME280;38939;47.824;14.642;2023-02-23T00:40:25;96517.28;;;5.56;76.50
39769;BME280;38939;47.824;14.642;2023-02-23T00:41:27;96516.91;;;5.59;75.85
39769;BME280;38939;47.824;14.642;2023-02-23T00:42:29;96519.16;;;5.62;76.24
39769;BME280;38939;47.824;14.642;2023-02-23T00:43:33;96515.56;;;5.63;75.45
39769;BME280;38939;47.824;14.642;2023-02-23T00:44:35;96512.00;;;5.64;75.13
39769;BME280;38939;47.824;14.642;2023-02-23T00:45:41;96517.00;;;5.66;75.70
39769;BME280;38939;47.824;14.642;2023-02-23T00:46:43;96508.25;;;5.67;74.89
39769;BME280;38939;47.824;14.642;2023-02-23T00:47:45;96515.22;;;5.66;75.36
39769;BME280;38939;47.824;14.642;2023-02-23T00:48:49;96524.06;;;5.57;76.80
39769;BME280;38939;47.824;14.642;2023-02-23T00:49:51;96523.06;;;5.43;77.07
39769;BME280;38939;47.824;14.642;2023-02-23T00:51:00;96522.91;;;5.45;76.35
39769;BME280;38939;47.824;14.642;2023-02-23T00:52:02;96524.78;;;5.36;77.32
39769;BME280;38939;47.824;14.642;2023-02-23T00:53:05;96519.69;;;5.28;77.84
39769;BME280;38939;47.824;14.642;2023-02-23T00:54:07;96528.69;;;5.32;77.51
39769;BME280;38939;47.824;14.642;2023-02-23T00:55:10;96521.41;;;5.35;77.43
39769;BME280;38939;47.824;14.642;2023-02-23T00:56:13;96523.63;;;5.38;77.36
39769;BME280;38939;47.824;14.642;2023-02-23T00:57:15;96524.25;;;5.40;77.15
39769;BME280;38939;47.824;14.642;2023-02-23T00:58:17;96525.03;;;5.41;76.76
39769;BME280;38939;47.824;14.642;2023-02-23T00:59:19;96526.66;;;5.42;76.00
39769;BME280;38939;47.824;14.642;2023-02-23T01:00:21;96528.25;;;5.43;75.73
39769;BME280;38939;47.824;14.642;2023-02-23T01:01:23;96525.31;;;5.46;75.65
39769;BME280;38939;47.824;14.642;2023-02-23T01:02:26;96526.72;;;5.49;75.56
39769;BME280;38939;47.824;14.642;2023-02-23T01:03:31;96529.94;;;5.51;74.88
39769;BME280;38939;47.824;14.642;2023-02-23T01:04:33;96518.78;;;5.50;74.74
39769;BME280;38939;47.824;14.642;2023-02-23T01:05:35;96527.34;;;5.51;74.83
39769;BME280;38939;47.824;14.642;2023-02-23T01:06:37;96531.91;;;5.49;75.19
39769;BME280;38939;47.824;14.642;2023-02-23T01:07:40;96532.28;;;5.46;74.47
39769;BME280;38939;47.824;14.642;2023-02-23T01:08:42;96523.91;;;5.44;75.40
39769;BME280;38939;47.824;14.642;2023-02-23T01:09:45;96525.66;;;5.43;75.07
39769;BME280;38939;47.824;14.642;2023-02-23T01:10:47;96522.28;;;5.43;76.03
39769;BME280;38939;47.824;14.642;2023-02-23T01:11:55;96527.44;;;5.43;75.67
39769;BME280;38939;47.824;14.642;2023-02-23T01:12:57;96529.06;;;5.44;75.89
39769;BME280;38939;47.824;14.642;2023-02-23T01:13:59;96526.03;;;5.40;75.68
39769;BME280;38939;47.824;14.642;2023-02-23T01:15:02;96526.66;;;5.42;75.63
39769;BME280;38939;47.824;14.642;2023-02-23T01:16:04;96529.06;;;5.44;75.72
39769;BME280;38939;47.824;14.642;2023-02-23T01:17:07;96533.88;;;5.47;75.70
39769;BME280;38939;47.824;14.642;2023-02-23T01:18:10;96535.84;;;5.45;75.53
39769;BME280;38939;47.824;14.642;2023-02-23T01:19:12;96530.50;;;5.46;75.25
39769;BME280;38939;47.824;14.642;2023-02-23T01:20:15;96538.25;;;5.46;75.60
39769;BME280;38939;47.824;14.642;2023-02-23T01:21:21;96530.22;;;5.41;75.27
39769;BME280;38939;47.824;14.642;2023-02-23T01:22:24;96531.38;;;5.38;75.68
39769;BME280;38939;47.824;14.642;2023-02-23T01:23:25;96529.59;;;5.39;75.50
39769;BME280;38939;47.824;14.642;2023-02-23T01:24:27;96525.22;;;5.39;75.19
39769;BME280;38939;47.824;14.642;2023-02-23T01:25:29;96524.25;;;5.40;74.75
39769;BME280;38939;47.824;14.642;2023-02-23T01:26:32;96527.53;;;5.34;75.23
39769;BME280;38939;47.824;14.642;2023-02-23T01:27:35;96530.84;;;5.28;75.71
39769;BME280;38939;47.824;14.642;2023-02-23T01:28:38;96531.22;;;5.25;76.34
39769;BME280;38939;47.824;14.642;2023-02-23T01:29:39;96532.00;;;5.26;76.35
39769;BME280;38939;47.824;14.642;2023-02-23T01:30:41;96527.44;;;5.28;75.90
39769;BME280;38939;47.824;14.642;2023-02-23T01:31:45;96528.88;;;5.30;76.29
39769;BME280;38939;47.824;14.642;2023-02-23T01:32:47;96524.31;;;5.32;75.78
39769;BME280;38939;47.824;14.642;2023-02-23T01:33:56;96528.25;;;5.28;75.81
39769;BME280;38939;47.824;14.642;2023-02-23T01:34:58;96527.97;;;5.23;76.29
39769;BME280;38939;47.824;14.642;2023-02-23T01:36:00;96524.94;;;5.19;75.87
39769;BME280;38939;47.824;14.642;2023-02-23T01:37:02;96521.53;;;5.19;76.36
39769;BME280;38939;47.824;14.642;2023-02-23T01:38:03;96526.72;;;5.19;76.09
39769;BME280;38939;47.824;14.642;2023-02-23T01:39:07;96527.09;;;5.16;76.26
39769;BME280;38939;47.824;14.642;2023-02-23T01:40:13;96530.28;;;5.18;75.54
39769;BME280;38939;47.824;14.642;2023-02-23T01:41:16;96531.09;;;5.18;75.10
39769;BME280;38939;47.824;14.642;2023-02-23T01:42:18;96531.72;;;5.20;75.17
39769;BME280;38939;47.824;14.642;2023-02-23T01:43:20;96525.56;;;5.21;75.08
39769;BME280;38939;47.824;14.642;2023-02-23T01:46:36;96523.78;;;5.22;75.21
39769;BME280;38939;47.824;14.642;2023-02-23T01:47:39;96528.78;;;5.24;75.06
39769;BME280;38939;47.824;14.642;2023-02-23T01:48:41;96532.16;;;5.24;75.01
39769;BME280;38939;47.824;14.642;2023-02-23T01:49:43;96530.28;;;5.18;75.31
39769;BME280;38939;47.824;14.642;2023-02-23T01:52:06;96531.00;;;5.12;75.25
39769;BME280;38939;47.824;14.642;2023-02-23T01:53:11;96529.38;;;5.11;75.63
39769;BME280;38939;47.824;14.642;2023-02-23T01:54:23;96533.59;;;5.12;75.27
39769;BME280;38939;47.824;14.642;2023-02-23T01:55:26;96522.16;;;5.06;75.25
39769;BME280;38939;47.824;14.642;2023-02-23T01:56:31;96523.66;;;5.00;75.53
39769;BME280;38939;47.824;14.642;2023-02-23T01:57:34;96521.69;;;5.03;75.56
39769;BME280;38939;47.824;14.642;2023-02-23T01:58:42;96524.91;;;5.05;75.48
39769;BME280;38939;47.824;14.642;2023-02-23T01:59:47;96526.44;;;4.99;75.93
39769;BME280;38939;47.824;14.642;2023-02-23T02:00:54;96521.69;;;4.88;76.30
39769;BME280;38939;47.824;14.642;2023-02-23T02:01:56;96520.59;;;4.82;76.81
39769;BME280;38939;47.824;14.642;2023-02-23T02:02:59;96520.25;;;4.85;76.43
39769;BME280;38939;47.824;14.642;2023-02-23T02:04:03;96516.69;;;4.86;76.91
39769;BME280;38939;47.824;14.642;2023-02-23T02:05:08;96525.78;;;4.82;77.23
39769;BME280;38939;47.824;14.642;2023-02-23T02:06:16;96519.63;;;4.83;76.93
39769;BME280;38939;47.824;14.642;2023-02-23T02:07:20;96522.47;;;4.88;76.39
39769;BME280;38939;47.824;14.642;2023-02-23T02:08:27;96523.09;;;4.90;76.06
39769;BME280;38939;47.824;14.642;2023-02-23T02:09:30;96516.59;;;4.94;76.05
39769;BME280;38939;47.824;14.642;2023-02-23T02:10:38;96510.31;;;4.97;76.00
39769;BME280;38939;47.824;14.642;2023-02-23T02:11:40;96516.69;;;4.86;76.53
39769;BME280;38939;47.824;14.642;2023-02-23T02:12:45;96516.22;;;4.82;76.95
39769;BME280;38939;47.824;14.642;2023-02-23T02:13:53;96523.66;;;4.86;76.44
39769;BME280;38939;47.824;14.642;2023-02-23T02:14:57;96512.13;;;4.88;76.50
39769;BME280;38939;47.824;14.642;2023-02-23T02:17:15;96521.38;;;4.68;77.95
39769;BME280;38939;47.824;14.642;2023-02-23T02:18:34;96515.31;;;4.60;78.00
39769;BME280;38939;47.824;14.642;2023-02-23T02:28:28;96517.53;;;4.64;78.28
39769;BME280;38939;47.824;14.642;2023-02-23T02:32:04;96510.88;;;4.69;77.54
39769;BME280;38939;47.824;14.642;2023-02-23T02:33:24;96517.81;;;4.69;77.21
39769;BME280;38939;47.824;14.642;2023-02-23T02:34:50;96514.06;;;4.71;77.01
39769;BME280;38939;47.824;14.642;2023-02-23T02:40:15;96519.81;;;4.58;77.73
39769;BME280;38939;47.824;14.642;2023-02-23T02:42:39;96523.38;;;4.57;76.96
39769;BME280;38939;47.824;14.642;2023-02-23T02:45:01;96517.34;;;4.65;77.02
39769;BME280;38939;47.824;14.642;2023-02-23T02:47:07;96515.47;;;4.59;77.84
39769;BME280;38939;47.824;14.642;2023-02-23T02:49:33;96520.97;;;4.56;77.48
39769;BME280;38939;47.824;14.642;2023-02-23T02:50:43;96520.16;;;4.55;77.17
39769;BME280;38939;47.824;14.642;2023-02-23T02:51:49;96515.00;;;4.55;77.02
39769;BME280;38939;47.824;14.642;2023-02-23T02:52:54;96512.75;;;4.52;77.02
39769;BME280;38939;47.824;14.642;2023-02-23T02:54:02;96518.56;;;4.54;77.17
39769;BME280;38939;47.824;14.642;2023-02-23T02:55:14;96520.50;;;4.52;77.78
39769;BME280;38939;47.824;14.642;2023-02-23T02:56:18;96520.50;;;4.52;77.85
39769;BME280;38939;47.824;14.642;2023-02-23T02:57:23;96520.50;;;4.52;78.09
39769;BME280;38939;47.824;14.642;2023-02-23T02:58:26;96517.41;;;4.57;77.67
39769;BME280;38939;47.824;14.642;2023-02-23T02:59:29;96523.06;;;4.60;77.41
39769;BME280;38939;47.824;14.642;2023-02-23T03:00:50;96527.75;;;4.57;77.77
39769;BME280;38939;47.824;14.642;2023-02-23T03:02:21;96523.91;;;4.53;77.66
39769;BME280;38939;47.824;14.642;2023-02-23T03:03:42;96524.06;;;4.51;77.54
39769;BME280;38939;47.824;14.642;2023-02-23T03:05:11;96523.16;;;4.44;77.93
39769;BME280;38939;47.824;14.642;2023-02-23T03:06:32;96519.31;;;4.40;77.96
39769;BME280;38939;47.824;14.642;2023-02-23T03:12:05;96525.25;;;4.49;77.21
39769;BME280;38939;47.824;14.642;2023-02-23T03:15:28;96530.69;;;4.31;78.30
39769;BME280;38939;47.824;14.642;2023-02-23T03:16:42;96527.75;;;4.34;77.99
39769;BME280;38939;47.824;14.642;2023-02-23T03:19:33;96532.41;;;4.38;77.72
39769;BME280;38939;47.824;14.642;2023-02-23T03:20:57;96532.28;;;4.32;78.05
39769;BME280;38939;47.824;14.642;2023-02-23T03:25:05;96537.00;;;4.28;78.29
39769;BME280;38939;47.824;14.642;2023-02-23T03:26:35;96531.63;;;4.30;78.17
39769;BME280;38939;47.824;14.642;2023-02-23T03:29:39;96532.31;;;4.24;78.12
39769;BME280;38939;47.824;14.642;2023-02-23T03:31:08;96539.75;;;4.27;77.96
39769;BME280;38939;47.824;14.642;2023-02-23T03:35:35;96542.13;;;4.36;77.47
39769;BME280;38939;47.824;14.642;2023-02-23T03:37:03;96551.97;;;4.33;76.99
39769;BME280;38939;47.824;14.642;2023-02-23T03:38:30;96542.66;;;4.24;77.63
39769;BME280;38939;47.824;14.642;2023-02-23T03:39:55;96547.50;;;4.27;77.53
39769;BME280;38939;47.824;14.642;2023-02-23T03:41:17;96553.28;;;4.29;77.08
39769;BME280;38939;47.824;14.642;2023-02-23T03:42:39;96557.47;;;4.30;77.48
39769;BME280;38939;47.824;14.642;2023-02-23T03:44:02;96549.09;;;4.28;77.64
39769;BME280;38939;47.824;14.642;2023-02-23T03:45:25;96549.44;;;4.25;77.79
39769;BME280;38939;47.824;14.642;2023-02-23T03:46:47;96553.78;;;4.24;77.64
39769;BME280;38939;47.824;14.642;2023-02-23T03:48:10;96555.88;;;4.29;77.46
39769;BME280;38939;47.824;14.642;2023-02-23T03:49:33;96554.09;;;4.29;76.82
39769;BME280;38939;47.824;14.642;2023-02-23T03:50:55;96559.47;;;4.19;77.72
39769;BME280;38939;47.824;14.642;2023-02-23T03:52:23;96558.13;;;4.00;79.12
39769;BME280;38939;47.824;14.642;2023-02-23T03:55:25;96563.84;;;3.79;80.29
39769;BME280;38939;47.824;14.642;2023-02-23T03:56:47;96557.13;;;3.70;81.04
39769;BME280;38939;47.824;14.642;2023-02-23T03:58:08;96572.00;;;3.60;81.62
39769;BME280;38939;47.824;14.642;2023-02-23T03:59:32;96561.03;;;3.58;81.32
39769;BME280;38939;47.824;14.642;2023-02-23T04:00:53;96563.75;;;3.65;81.56
39769;BME280;38939;47.824;14.642;2023-02-23T04:02:15;96557.78;;;3.64;81.41
39769;BME280;38939;47.824;14.642;2023-02-23T04:03:37;96560.97;;;3.74;81.18
39769;BME280;38939;47.824;14.642;2023-02-23T04:05:01;96562.09;;;3.80;81.37
39769;BME280;38939;47.824;14.642;2023-02-23T04:06:25;96565.75;;;3.86;80.66
39769;BME280;38939;47.824;14.642;2023-02-23T04:07:47;96555.44;;;3.86;81.07
39769;BME280;38939;47.824;14.642;2023-02-23T04:09:10;96562.22;;;3.87;81.11
39769;BME280;38939;47.824;14.642;2023-02-23T04:10:31;96561.06;;;3.89;81.00
39769;BME280;38939;47.824;14.642;2023-02-23T04:11:57;96561.69;;;3.91;80.96
39769;BME280;38939;47.824;14.642;2023-02-23T04:13:21;96566.94;;;3.75;81.40
39769;BME280;38939;47.824;14.642;2023-02-23T04:15:56;96566.53;;;3.47;82.04
39769;BME280;38939;47.824;14.642;2023-02-23T04:17:00;96563.16;;;3.46;82.11
39769;BME280;38939;47.824;14.642;2023-02-23T04:18:03;96564.94;;;3.46;82.79
39769;BME280;38939;47.824;14.642;2023-02-23T04:19:06;96570.38;;;3.51;82.33
39769;BME280;38939;47.824;14.642;2023-02-23T04:20:08;96573.13;;;3.49;82.58
39769;BME280;38939;47.824;14.642;2023-02-23T04:21:12;96566.06;;;3.35;82.43
39769;BME280;38939;47.824;14.642;2023-02-23T04:22:14;96565.28;;;3.34;83.20
39769;BME280;38939;47.824;14.642;2023-02-23T04:23:16;96565.94;;;3.28;83.09
39769;BME280;38939;47.824;14.642;2023-02-23T04:24:18;96569.66;;;3.26;83.45
39769;BME280;38939;47.824;14.642;2023-02-23T04:25:20;96568.19;;;3.23;83.74
39769;BME280;38939;47.824;14.642;2023-02-23T04:26:25;96570.44;;;3.34;84.25
39769;BME280;38939;47.824;14.642;2023-02-23T04:27:27;96571.22;;;3.43;84.04
39769;BME280;38939;47.824;14.642;2023-02-23T04:28:29;96575.91;;;3.48;83.32
39769;BME280;38939;47.824;14.642;2023-02-23T04:29:31;96562.66;;;3.51;83.09
39769;BME280;38939;47.824;14.642;2023-02-23T04:30:33;96571.81;;;3.53;83.38
39769;BME280;38939;47.824;14.642;2023-02-23T04:31:35;96569.09;;;3.55;82.90
39769;BME280;38939;47.824;14.642;2023-02-23T04:32:37;96570.72;;;3.48;82.96
39769;BME280;38939;47.824;14.642;2023-02-23T04:33:39;96573.66;;;3.36;83.30
39769;BME280;38939;47.824;14.642;2023-02-23T04:34:41;96573.16;;;3.33;83.62
39769;BME280;38939;47.824;14.642;2023-02-23T04:35:43;96574.78;;;3.34;83.15
39769;BME280;38939;47.824;14.642;2023-02-23T04:36:45;96570.28;;;3.36;83.30
39769;BME280;38939;47.824;14.642;2023-02-23T04:37:47;96565.59;;;3.39;83.04
39769;BME280;38939;47.824;14.642;2023-02-23T04:38:49;96577.19;;;3.44;83.57
39769;BME280;38939;47.824;14.642;2023-02-23T04:39:51;96572.97;;;3.51;83.00
39769;BME280;38939;47.824;14.642;2023-02-23T04:40:52;96563.00;;;3.48;83.33
39769;BME280;38939;47.824;14.642;2023-02-23T04:41:54;96568.16;;;3.48;82.99
39769;BME280;38939;47.824;14.642;2023-02-23T04:42:56;96569.59;;;3.50;83.00
39769;BME280;38939;47.824;14.642;2023-02-23T04:43:58;96572.66;;;3.54;82.62
39769;BME280;38939;47.824;14.642;2023-02-23T04:45:00;96567.78;;;3.59;82.36
39769;BME280;38939;47.824;14.642;2023-02-23T04:46:02;96566.66;;;3.62;82.37
39769;BME280;38939;47.824;14.642;2023-02-23T04:47:04;96565.69;;;3.63;82.33
39769;BME280;38939;47.824;14.642;2023-02-23T04:48:07;96563.44;;;3.68;81.78
39769;BME280;38939;47.824;14.642;2023-02-23T04:49:09;96573.06;;;3.74;81.28
39769;BME280;38939;47.824;14.642;2023-02-23T04:50:11;96568.38;;;3.77;81.31
39769;BME280;38939;47.824;14.642;2023-02-23T04:51:13;96572.06;;;3.83;80.75
39769;BME280;38939;47.824;14.642;2023-02-23T04:52:15;96566.91;;;3.83;80.54
39769;BME280;38939;47.824;14.642;2023-02-23T04:53:17;96575.66;;;3.74;80.93
39769;BME280;38939;47.824;14.642;2023-02-23T04:54:19;96573.56;;;3.69;81.36
39769;BME280;38939;47.824;14.642;2023-02-23T04:55:21;96578.91;;;3.68;80.96
39769;BME280;38939;47.824;14.642;2023-02-23T04:56:23;96579.69;;;3.68;80.83
39769;BME280;38939;47.824;14.642;2023-02-23T04:57:25;96580.19;;;3.72;80.65
39769;BME280;38939;47.824;14.642;2023-02-23T04:58:28;96577.09;;;3.76;80.80
39769;BME280;38939;47.824;14.642;2023-02-23T04:59:30;96570.00;;;3.78;80.37
39769;BME280;38939;47.824;14.642;2023-02-23T05:00:32;96579.31;;;3.79;80.79
39769;BME280;38939;47.824;14.642;2023-02-23T05:01:34;96577.22;;;3.83;80.30
39769;BME280;38939;47.824;14.642;2023-02-23T05:02:37;96581.22;;;3.86;80.00
39769;BME280;38939;47.824;14.642;2023-02-23T05:03:39;96571.91;;;3.85;80.53
39769;BME280;38939;47.824;14.642;2023-02-23T05:04:41;96565.13;;;3.84;80.55
39769;BME280;38939;47.824;14.642;2023-02-23T05:05:43;96569.94;;;3.87;80.07
39769;BME280;38939;47.824;14.642;2023-02-23T05:06:45;96575.75;;;3.89;79.88
39769;BME280;38939;47.824;14.642;2023-02-23T05:07:47;96573.66;;;3.92;79.75
39769;BME280;38939;47.824;14.642;2023-02-23T05:08:49;96568.31;;;3.94;79.42
39769;BME280;38939;47.824;14.642;2023-02-23T05:09:51;96571.53;;;3.88;79.51
39769;BME280;38939;47.824;14.642;2023-02-23T05:10:53;96573.69;;;3.84;79.57
39769;BME280;38939;47.824;14.642;2023-02-23T05:11:55;96573.50;;;3.86;79.80
39769;BME280;38939;47.824;14.642;2023-02-23T05:12:57;96568.16;;;3.87;79.75
39769;BME280;38939;47.824;14.642;2023-02-23T05:13:59;96568.66;;;3.91;78.90
39769;BME280;38939;47.824;14.642;2023-02-23T05:15:01;96570.59;;;3.89;79.17
39769;BME280;38939;47.824;14.642;2023-02-23T05:16:03;96568.31;;;3.86;79.40
39769;BME280;38939;47.824;14.642;2023-02-23T05:17:05;96570.75;;;3.87;79.29
39769;BME280;38939;47.824;14.642;2023-02-23T05:18:09;96570.28;;;3.84;79.18
39769;BME280;38939;47.824;14.642;2023-02-23T05:19:11;96563.69;;;3.81;79.77
39769;BME280;38939;47.824;14.642;2023-02-23T05:20:13;96573.22;;;3.80;79.88
39769;BME280;38939;47.824;14.642;2023-02-23T05:21:15;96570.28;;;3.84;79.37
39769;BME280;38939;47.824;14.642;2023-02-23T05:22:18;96582.22;;;3.85;79.68
39769;BME280;38939;47.824;14.642;2023-02-23T05:23:19;96575.44;;;3.84;79.27
39769;BME280;38939;47.824;14.642;2023-02-23T05:24:22;96571.91;;;3.85;79.25
39769;BME280;38939;47.824;14.642;2023-02-23T05:25:24;96578.34;;;3.89;79.05
39769;BME280;38939;47.824;14.642;2023-02-23T05:26:26;96578.34;;;3.89;79.14
39769;BME280;38939;47.824;14.642;2023-02-23T05:27:28;96575.13;;;3.87;79.21
39769;BME280;38939;47.824;14.642;2023-02-23T05:28:31;96583.81;;;3.86;79.01
39769;BME280;38939;47.824;14.642;2023-02-23T05:29:34;96580.28;;;3.87;79.49
39769;BME280;38939;47.824;14.642;2023-02-23T05:30:36;96585.47;;;3.78;79.65
39769;BME280;38939;47.824;14.642;2023-02-23T05:31:38;96580.19;;;3.72;79.91
39769;BME280;38939;47.824;14.642;2023-02-23T05:32:40;96574.41;;;3.53;81.27
39769;BME280;38939;47.824;14.642;2023-02-23T05:33:42;96581.38;;;3.36;81.89
39769;BME280;38939;47.824;14.642;2023-02-23T05:34:44;96575.44;;;3.36;82.23
39769;BME280;38939;47.824;14.642;2023-02-23T05:35:47;96583.19;;;3.28;83.18
39769;BME280;38939;47.824;14.642;2023-02-23T05:36:49;96576.41;;;3.18;83.73
39769;BME280;38939;47.824;14.642;2023-02-23T05:37:51;96577.69;;;3.23;83.82
39769;BME280;38939;47.824;14.642;2023-02-23T05:38:53;96575.09;;;3.31;82.99
39769;BME280;38939;47.824;14.642;2023-02-23T05:39:55;96575.28;;;3.37;82.77
39769;BME280;38939;47.824;14.642;2023-02-23T05:40:57;96577.50;;;3.40;83.05
39769;BME280;38939;47.824;14.642;2023-02-23T05:41:59;96571.06;;;3.45;83.00
39769;BME280;38939;47.824;14.642;2023-02-23T05:43:01;96572.97;;;3.51;82.73
39769;BME280;38939;47.824;14.642;2023-02-23T05:44:02;96575.88;;;3.56;81.77
39769;BME280;38939;47.824;14.642;2023-02-23T05:45:05;96576.31;;;3.59;82.00
39769;BME280;38939;47.824;14.642;2023-02-23T05:46:08;96575.38;;;3.60;81.59
39769;BME280;38939;47.824;14.642;2023-02-23T05:47:10;96586.81;;;3.66;81.25
39769;BME280;38939;47.824;14.642;2023-02-23T05:48:12;96575.97;;;3.71;81.36
39769;BME280;38939;47.824;14.642;2023-02-23T05:49:15;96571.63;;;3.71;80.78
39769;BME280;38939;47.824;14.642;2023-02-23T05:50:17;96578.72;;;3.69;80.65
39769;BME280;38939;47.824;14.642;2023-02-23T05:51:18;96583.59;;;3.64;80.66
39769;BME280;38939;47.824;14.642;2023-02-23T05:52:21;96580.69;;;3.51;81.10
39769;BME280;38939;47.824;14.642;2023-02-23T05:53:23;96578.00;;;3.44;81.64
39769;BME280;38939;47.824;14.642;2023-02-23T05:54:25;96591.03;;;3.43;81.34
39769;BME280;38939;47.824;14.642;2023-02-23T05:55:27;96578.63;;;3.46;81.56
39769;BME280;38939;47.824;14.642;2023-02-23T05:56:29;96585.22;;;3.49;81.15
39769;BME280;38939;47.824;14.642;2023-02-23T05:57:32;96585.72;;;3.52;81.61
39769;BME280;38939;47.824;14.642;2023-02-23T05:58:34;96586.22;;;3.48;81.64
39769;BME280;38939;47.824;14.642;2023-02-23T05:59:36;96589.59;;;3.48;81.58
39769;BME280;38939;47.824;14.642;2023-02-23T06:00:38;96582.66;;;3.49;81.69
39769;BME280;38939;47.824;14.642;2023-02-23T06:01:40;96582.81;;;3.47;81.86
39769;BME280;38939;47.824;14.642;2023-02-23T06:02:42;96587.31;;;3.53;81.69
39769;BME280;38939;47.824;14.642;2023-02-23T06:03:44;96589.75;;;3.47;82.44
39769;BME280;38939;47.824;14.642;2023-02-23T06:04:46;96589.59;;;3.48;81.97
39769;BME280;38939;47.824;14.642;2023-02-23T06:05:52;96582.34;;;3.44;82.25
39769;BME280;38939;47.824;14.642;2023-02-23T06:06:54;96588.31;;;3.44;82.85
39769;BME280;38939;47.824;14.642;2023-02-23T06:07:56;96584.44;;;3.48;82.26
39769;BME280;38939;47.824;14.642;2023-02-23T06:08:58;96594.09;;;3.54;82.53
39769;BME280;38939;47.824;14.642;2023-02-23T06:09:59;96592.94;;;3.57;83.00
39769;BME280;38939;47.824;14.642;2023-02-23T06:11:01;96587.66;;;3.50;82.77
39769;BME280;38939;47.824;14.642;2023-02-23T06:12:04;96587.81;;;3.40;82.97
39769;BME280;38939;47.824;14.642;2023-02-23T06:13:06;96589.59;;;3.40;83.79
39769;BME280;38939;47.824;14.642;2023-02-23T06:14:08;96592.31;;;3.47;83.57
39769;BME280;38939;47.824;14.642;2023-02-23T06:15:10;96590.06;;;3.52;83.21
39769;BME280;38939;47.824;14.642;2023-02-23T06:16:12;96586.97;;;3.56;82.80
39769;BME280;38939;47.824;14.642;2023-02-23T06:17:14;96590.69;;;3.62;82.59
39769;BME280;38939;47.824;14.642;2023-02-23T06:18:15;96595.34;;;3.67;82.64
39769;BME280;38939;47.824;14.642;2023-02-23T06:19:18;96589.66;;;3.71;81.99
39769;BME280;38939;47.824;14.642;2023-02-23T06:20:20;96594.03;;;3.71;82.09
39769;BME280;38939;47.824;14.642;2023-02-23T06:21:21;96591.97;;;3.66;82.16
39769;BME280;38939;47.824;14.642;2023-02-23T06:22:23;96597.31;;;3.56;82.49
39769;BME280;38939;47.824;14.642;2023-02-23T06:23:29;96595.03;;;3.53;82.63
39769;BME280;38939;47.824;14.642;2023-02-23T06:24:31;96588.78;;;3.56;82.94
39769;BME280;38939;47.824;14.642;2023-02-23T06:25:35;96596.03;;;3.52;83.25
39769;BME280;38939;47.824;14.642;2023-02-23T06:26:37;96594.09;;;3.54;83.12
39769;BME280;38939;47.824;14.642;2023-02-23T06:27:39;96588.13;;;3.54;83.41
39769;BME280;38939;47.824;14.642;2023-02-23T06:28:43;96593.75;;;3.57;82.89
39769;BME280;38939;47.824;14.642;2023-02-23T06:29:44;96594.22;;;3.61;83.27
39769;BME280;38939;47.824;14.642;2023-02-23T06:30:46;96591.47;;;3.63;82.94
39769;BME280;38939;47.824;14.642;2023-02-23T06:31:49;96590.34;;;3.65;83.12